Terminal Aerodrome Forecast
Issued by NWS

Home | Current Version | Previous Version | Graphics & Text | Print | Product List | Glossary On
Versions: 1 2 3 4 5 6 7 8 9 10 11 12 13 14 15 16 17 18
000
FTUS43 KIWX 141617 AAA
TAFSBN
TAF AMD
KSBN 141617Z 1416/1512 11009KT P6SM -SHRA VCTS BKN045CB OVC080
      TEMPO 1416/1419 2SM TSRA OVC025CB
     FM150100 19013KT P6SM VCTS SCT035CB OVC050 WS020/21045KT
     FM150700 22018G26KT P6SM -SHRA BKN025=

USA.gov is the U.S. government's official web portal to all federal, state and local government web resources and services.